sensor_id;sensor_type;location;lat;lon;timestamp;P1;durP1;ratioP1;P2;durP2;ratioP2
43319;SDS011;28914;48.722;9.332;2023-05-10T00:02:22;1.40;;;1.03;;
43319;SDS011;28914;48.722;9.332;2023-05-10T00:07:43;1.83;;;1.10;;
43319;SDS011;28914;48.722;9.332;2023-05-10T00:13:03;1.20;;;0.97;;
43319;SDS011;28914;48.722;9.332;2023-05-10T00:18:22;1.40;;;0.60;;
43319;SDS011;28914;48.722;9.332;2023-05-10T00:23:42;1.17;;;0.80;;
43319;SDS011;28914;48.722;9.332;2023-05-10T00:29:01;1.40;;;0.90;;
43319;SDS011;28914;48.722;9.332;2023-05-10T00:34:20;1.73;;;0.80;;
43319;SDS011;28914;48.722;9.332;2023-05-10T00:39:39;1.20;;;0.80;;
43319;SDS011;28914;48.722;9.332;2023-05-10T00:44:59;1.23;;;0.60;;
43319;SDS011;28914;48.722;9.332;2023-05-10T00:50:18;0.83;;;0.50;;
43319;SDS011;28914;48.722;9.332;2023-05-10T00:55:37;0.90;;;0.60;;
43319;SDS011;28914;48.722;9.332;2023-05-10T01:00:57;1.10;;;0.57;;
43319;SDS011;28914;48.722;9.332;2023-05-10T01:06:18;1.00;;;0.60;;
43319;SDS011;28914;48.722;9.332;2023-05-10T01:11:38;1.50;;;0.70;;
43319;SDS011;28914;48.722;9.332;2023-05-10T01:16:58;1.60;;;0.50;;
43319;SDS011;28914;48.722;9.332;2023-05-10T01:22:30;1.20;;;0.50;;
43319;SDS011;28914;48.722;9.332;2023-05-10T01:34:12;1.47;;;0.63;;
43319;SDS011;28914;48.722;9.332;2023-05-10T01:39:49;1.93;;;0.50;;
43319;SDS011;28914;48.722;9.332;2023-05-10T01:45:32;2.40;;;0.57;;
43319;SDS011;28914;48.722;9.332;2023-05-10T01:50:56;1.53;;;0.50;;
43319;SDS011;28914;48.722;9.332;2023-05-10T01:56:16;0.80;;;0.40;;
43319;SDS011;28914;48.722;9.332;2023-05-10T02:01:41;0.90;;;0.50;;
43319;SDS011;28914;48.722;9.332;2023-05-10T02:07:02;0.80;;;0.50;;
43319;SDS011;28914;48.722;9.332;2023-05-10T02:12:22;0.80;;;0.40;;
43319;SDS011;28914;48.722;9.332;2023-05-10T02:17:43;0.80;;;0.47;;
43319;SDS011;28914;48.722;9.332;2023-05-10T02:23:05;0.80;;;0.50;;
43319;SDS011;28914;48.722;9.332;2023-05-10T02:28:25;1.10;;;0.40;;
43319;SDS011;28914;48.722;9.332;2023-05-10T02:33:46;1.93;;;0.50;;
43319;SDS011;28914;48.722;9.332;2023-05-10T02:39:06;1.67;;;0.50;;
43319;SDS011;28914;48.722;9.332;2023-05-10T02:44:28;1.00;;;0.50;;
43319;SDS011;28914;48.722;9.332;2023-05-10T02:49:49;1.40;;;0.50;;
43319;SDS011;28914;48.722;9.332;2023-05-10T02:55:09;0.90;;;0.47;;
43319;SDS011;28914;48.722;9.332;2023-05-10T03:00:29;0.90;;;0.40;;
43319;SDS011;28914;48.722;9.332;2023-05-10T03:05:49;1.77;;;0.40;;
43319;SDS011;28914;48.722;9.332;2023-05-10T03:16:42;4.33;;;1.07;;
43319;SDS011;28914;48.722;9.332;2023-05-10T03:22:08;1.50;;;0.40;;
43319;SDS011;28914;48.722;9.332;2023-05-10T03:27:30;1.03;;;0.50;;
43319;SDS011;28914;48.722;9.332;2023-05-10T03:32:50;1.00;;;0.50;;
43319;SDS011;28914;48.722;9.332;2023-05-10T03:38:09;2.30;;;0.40;;
43319;SDS011;28914;48.722;9.332;2023-05-10T03:43:28;0.80;;;0.40;;
43319;SDS011;28914;48.722;9.332;2023-05-10T03:48:48;0.80;;;0.40;;
43319;SDS011;28914;48.722;9.332;2023-05-10T03:54:07;0.80;;;0.40;;
43319;SDS011;28914;48.722;9.332;2023-05-10T03:59:26;0.90;;;0.40;;
43319;SDS011;28914;48.722;9.332;2023-05-10T04:04:45;0.80;;;0.40;;
43319;SDS011;28914;48.722;9.332;2023-05-10T04:10:04;1.27;;;0.60;;
43319;SDS011;28914;48.722;9.332;2023-05-10T04:15:24;1.20;;;0.70;;
43319;SDS011;28914;48.722;9.332;2023-05-10T04:20:43;3.10;;;0.70;;
43319;SDS011;28914;48.722;9.332;2023-05-10T04:26:03;0.90;;;0.50;;
43319;SDS011;28914;48.722;9.332;2023-05-10T04:31:22;1.00;;;0.60;;
43319;SDS011;28914;48.722;9.332;2023-05-10T04:36:41;1.60;;;1.40;;
43319;SDS011;28914;48.722;9.332;2023-05-10T04:42:01;1.40;;;1.00;;
43319;SDS011;28914;48.722;9.332;2023-05-10T04:47:21;1.30;;;0.80;;
43319;SDS011;28914;48.722;9.332;2023-05-10T04:52:40;1.27;;;0.73;;
43319;SDS011;28914;48.722;9.332;2023-05-10T04:58:00;1.00;;;0.60;;
43319;SDS011;28914;48.722;9.332;2023-05-10T05:03:19;1.33;;;0.70;;
43319;SDS011;28914;48.722;9.332;2023-05-10T05:08:38;3.17;;;1.00;;
43319;SDS011;28914;48.722;9.332;2023-05-10T05:13:57;1.10;;;0.70;;
43319;SDS011;28914;48.722;9.332;2023-05-10T05:19:17;1.00;;;0.60;;
43319;SDS011;28914;48.722;9.332;2023-05-10T05:24:36;1.00;;;0.77;;
43319;SDS011;28914;48.722;9.332;2023-05-10T05:29:56;0.90;;;0.60;;
43319;SDS011;28914;48.722;9.332;2023-05-10T05:35:16;1.87;;;0.70;;
43319;SDS011;28914;48.722;9.332;2023-05-10T05:40:35;1.67;;;0.90;;
43319;SDS011;28914;48.722;9.332;2023-05-10T05:45:54;1.20;;;0.80;;
43319;SDS011;28914;48.722;9.332;2023-05-10T05:51:13;1.03;;;0.80;;
43319;SDS011;28914;48.722;9.332;2023-05-10T05:56:33;0.90;;;0.60;;
43319;SDS011;28914;48.722;9.332;2023-05-10T06:01:52;1.00;;;0.60;;
43319;SDS011;28914;48.722;9.332;2023-05-10T06:07:11;1.27;;;0.90;;
43319;SDS011;28914;48.722;9.332;2023-05-10T06:12:31;1.30;;;0.70;;
43319;SDS011;28914;48.722;9.332;2023-05-10T06:17:50;1.27;;;0.70;;
43319;SDS011;28914;48.722;9.332;2023-05-10T06:23:09;1.10;;;0.70;;
43319;SDS011;28914;48.722;9.332;2023-05-10T06:28:28;0.90;;;0.60;;
43319;SDS011;28914;48.722;9.332;2023-05-10T06:33:49;1.67;;;0.60;;
43319;SDS011;28914;48.722;9.332;2023-05-10T06:39:09;1.03;;;0.60;;
43319;SDS011;28914;48.722;9.332;2023-05-10T06:44:30;0.90;;;0.57;;
43319;SDS011;28914;48.722;9.332;2023-05-10T06:49:49;1.83;;;0.90;;
43319;SDS011;28914;48.722;9.332;2023-05-10T06:55:08;1.20;;;0.70;;
43319;SDS011;28914;48.722;9.332;2023-05-10T07:00:28;1.00;;;0.70;;
43319;SDS011;28914;48.722;9.332;2023-05-10T07:05:47;0.97;;;0.70;;
43319;SDS011;28914;48.722;9.332;2023-05-10T07:11:06;0.80;;;0.50;;
43319;SDS011;28914;48.722;9.332;2023-05-10T07:16:26;1.40;;;0.70;;
43319;SDS011;28914;48.722;9.332;2023-05-10T07:21:45;1.13;;;0.70;;
43319;SDS011;28914;48.722;9.332;2023-05-10T07:27:04;3.87;;;1.10;;
43319;SDS011;28914;48.722;9.332;2023-05-10T07:32:23;1.50;;;0.83;;
43319;SDS011;28914;48.722;9.332;2023-05-10T07:37:42;1.43;;;1.00;;
43319;SDS011;28914;48.722;9.332;2023-05-10T07:43:01;1.00;;;0.80;;
43319;SDS011;28914;48.722;9.332;2023-05-10T07:48:21;2.17;;;0.77;;
43319;SDS011;28914;48.722;9.332;2023-05-10T07:53:40;1.73;;;1.07;;
43319;SDS011;28914;48.722;9.332;2023-05-10T07:58:59;1.23;;;0.77;;
43319;SDS011;28914;48.722;9.332;2023-05-10T08:04:18;1.20;;;0.90;;
43319;SDS011;28914;48.722;9.332;2023-05-10T08:09:37;1.00;;;0.70;;
43319;SDS011;28914;48.722;9.332;2023-05-10T08:14:56;2.00;;;0.70;;
43319;SDS011;28914;48.722;9.332;2023-05-10T08:20:16;2.60;;;0.70;;
43319;SDS011;28914;48.722;9.332;2023-05-10T08:25:37;0.90;;;0.60;;
43319;SDS011;28914;48.722;9.332;2023-05-10T08:30:57;2.13;;;0.70;;
43319;SDS011;28914;48.722;9.332;2023-05-10T08:36:16;0.90;;;0.60;;
43319;SDS011;28914;48.722;9.332;2023-05-10T08:41:39;0.93;;;0.73;;
43319;SDS011;28914;48.722;9.332;2023-05-10T08:47:06;0.90;;;0.60;;
43319;SDS011;28914;48.722;9.332;2023-05-10T08:52:28;4.23;;;0.63;;
43319;SDS011;28914;48.722;9.332;2023-05-10T08:57:49;1.57;;;0.67;;
43319;SDS011;28914;48.722;9.332;2023-05-10T09:03:08;1.00;;;0.70;;
43319;SDS011;28914;48.722;9.332;2023-05-10T09:08:28;1.00;;;0.70;;
43319;SDS011;28914;48.722;9.332;2023-05-10T09:13:49;1.17;;;0.60;;
43319;SDS011;28914;48.722;9.332;2023-05-10T09:19:11;1.17;;;0.80;;
43319;SDS011;28914;48.722;9.332;2023-05-10T09:24:30;1.07;;;0.60;;
43319;SDS011;28914;48.722;9.332;2023-05-10T09:29:49;1.33;;;0.70;;
43319;SDS011;28914;48.722;9.332;2023-05-10T09:35:13;1.10;;;0.60;;
43319;SDS011;28914;48.722;9.332;2023-05-10T09:40:34;1.77;;;0.80;;
43319;SDS011;28914;48.722;9.332;2023-05-10T09:45:53;1.10;;;0.67;;
43319;SDS011;28914;48.722;9.332;2023-05-10T09:51:24;1.10;;;0.80;;
43319;SDS011;28914;48.722;9.332;2023-05-10T09:56:45;1.93;;;1.13;;
43319;SDS011;28914;48.722;9.332;2023-05-10T10:02:05;1.00;;;0.80;;
43319;SDS011;28914;48.722;9.332;2023-05-10T10:07:25;1.37;;;0.80;;
43319;SDS011;28914;48.722;9.332;2023-05-10T10:12:44;2.20;;;0.80;;
43319;SDS011;28914;48.722;9.332;2023-05-10T10:18:04;1.20;;;0.70;;
43319;SDS011;28914;48.722;9.332;2023-05-10T10:23:23;1.00;;;0.60;;
43319;SDS011;28914;48.722;9.332;2023-05-10T10:34:27;1.10;;;0.53;;
43319;SDS011;28914;48.722;9.332;2023-05-10T10:39:48;1.00;;;0.60;;
43319;SDS011;28914;48.722;9.332;2023-05-10T10:45:12;1.83;;;0.50;;
43319;SDS011;28914;48.722;9.332;2023-05-10T10:50:31;1.53;;;0.60;;
43319;SDS011;28914;48.722;9.332;2023-05-10T10:56:09;0.93;;;0.60;;
43319;SDS011;28914;48.722;9.332;2023-05-10T11:01:33;1.97;;;0.80;;
43319;SDS011;28914;48.722;9.332;2023-05-10T11:07:15;1.17;;;0.60;;
43319;SDS011;28914;48.722;9.332;2023-05-10T11:12:45;1.10;;;0.80;;
43319;SDS011;28914;48.722;9.332;2023-05-10T11:18:29;1.10;;;0.60;;
43319;SDS011;28914;48.722;9.332;2023-05-10T11:23:49;2.17;;;0.67;;
43319;SDS011;28914;48.722;9.332;2023-05-10T11:29:10;0.90;;;0.50;;
43319;SDS011;28914;48.722;9.332;2023-05-10T11:34:31;1.00;;;0.50;;
43319;SDS011;28914;48.722;9.332;2023-05-10T11:39:54;2.63;;;0.67;;
43319;SDS011;28914;48.722;9.332;2023-05-10T11:45:13;0.90;;;0.60;;
43319;SDS011;28914;48.722;9.332;2023-05-10T11:50:32;2.20;;;0.53;;
43319;SDS011;28914;48.722;9.332;2023-05-10T11:55:52;1.00;;;0.60;;
43319;SDS011;28914;48.722;9.332;2023-05-10T12:01:11;1.20;;;0.57;;
43319;SDS011;28914;48.722;9.332;2023-05-10T12:06:31;1.57;;;0.70;;
43319;SDS011;28914;48.722;9.332;2023-05-10T12:11:55;1.77;;;0.60;;
43319;SDS011;28914;48.722;9.332;2023-05-10T12:17:15;1.57;;;0.70;;
43319;SDS011;28914;48.722;9.332;2023-05-10T12:22:35;1.73;;;0.70;;
43319;SDS011;28914;48.722;9.332;2023-05-10T12:27:55;1.50;;;0.60;;
43319;SDS011;28914;48.722;9.332;2023-05-10T12:33:15;1.73;;;0.83;;
43319;SDS011;28914;48.722;9.332;2023-05-10T12:38:37;1.67;;;0.87;;
43319;SDS011;28914;48.722;9.332;2023-05-10T12:44:01;1.53;;;0.60;;
43319;SDS011;28914;48.722;9.332;2023-05-10T12:49:21;1.00;;;0.70;;
43319;SDS011;28914;48.722;9.332;2023-05-10T12:54:40;2.90;;;0.80;;
43319;SDS011;28914;48.722;9.332;2023-05-10T12:59:59;1.30;;;0.90;;
43319;SDS011;28914;48.722;9.332;2023-05-10T13:05:18;1.77;;;1.17;;
43319;SDS011;28914;48.722;9.332;2023-05-10T13:10:37;3.30;;;1.10;;
43319;SDS011;28914;48.722;9.332;2023-05-10T13:15:56;1.87;;;0.90;;
43319;SDS011;28914;48.722;9.332;2023-05-10T13:21:15;2.80;;;1.17;;
43319;SDS011;28914;48.722;9.332;2023-05-10T13:26:35;1.63;;;0.80;;
43319;SDS011;28914;48.722;9.332;2023-05-10T13:31:54;3.20;;;1.20;;
43319;SDS011;28914;48.722;9.332;2023-05-10T13:37:13;1.90;;;1.20;;
43319;SDS011;28914;48.722;9.332;2023-05-10T13:42:33;1.90;;;1.03;;
43319;SDS011;28914;48.722;9.332;2023-05-10T13:47:52;1.63;;;1.10;;
43319;SDS011;28914;48.722;9.332;2023-05-10T13:53:11;1.50;;;0.80;;
43319;SDS011;28914;48.722;9.332;2023-05-10T13:58:31;1.50;;;1.13;;
43319;SDS011;28914;48.722;9.332;2023-05-10T14:03:50;1.73;;;0.80;;
43319;SDS011;28914;48.722;9.332;2023-05-10T14:09:09;2.07;;;1.40;;
43319;SDS011;28914;48.722;9.332;2023-05-10T14:14:28;1.70;;;1.10;;
43319;SDS011;28914;48.722;9.332;2023-05-10T14:19:48;1.90;;;1.10;;
43319;SDS011;28914;48.722;9.332;2023-05-10T14:25:07;2.03;;;1.17;;
43319;SDS011;28914;48.722;9.332;2023-05-10T14:30:27;2.37;;;1.20;;
43319;SDS011;28914;48.722;9.332;2023-05-10T14:35:46;3.00;;;1.13;;
43319;SDS011;28914;48.722;9.332;2023-05-10T14:41:06;1.70;;;1.20;;
43319;SDS011;28914;48.722;9.332;2023-05-10T14:46:25;1.40;;;0.87;;
43319;SDS011;28914;48.722;9.332;2023-05-10T14:51:45;1.80;;;0.97;;
43319;SDS011;28914;48.722;9.332;2023-05-10T14:57:04;2.87;;;1.00;;
43319;SDS011;28914;48.722;9.332;2023-05-10T15:02:23;2.40;;;0.80;;
43319;SDS011;28914;48.722;9.332;2023-05-10T15:07:42;1.97;;;1.20;;
43319;SDS011;28914;48.722;9.332;2023-05-10T15:13:03;1.87;;;1.07;;
43319;SDS011;28914;48.722;9.332;2023-05-10T15:18:22;2.63;;;1.33;;
43319;SDS011;28914;48.722;9.332;2023-05-10T15:23:41;2.60;;;0.80;;
43319;SDS011;28914;48.722;9.332;2023-05-10T15:29:00;2.53;;;1.10;;
43319;SDS011;28914;48.722;9.332;2023-05-10T15:34:19;1.97;;;1.10;;
43319;SDS011;28914;48.722;9.332;2023-05-10T15:39:39;1.67;;;1.20;;
43319;SDS011;28914;48.722;9.332;2023-05-10T15:44:58;2.50;;;1.00;;
43319;SDS011;28914;48.722;9.332;2023-05-10T15:50:17;1.53;;;1.13;;
43319;SDS011;28914;48.722;9.332;2023-05-10T15:55:36;2.10;;;1.10;;
43319;SDS011;28914;48.722;9.332;2023-05-10T16:00:56;2.70;;;1.20;;
43319;SDS011;28914;48.722;9.332;2023-05-10T16:06:15;2.13;;;1.03;;
43319;SDS011;28914;48.722;9.332;2023-05-10T16:11:35;1.57;;;1.10;;
43319;SDS011;28914;48.722;9.332;2023-05-10T16:16:54;1.63;;;1.47;;
43319;SDS011;28914;48.722;9.332;2023-05-10T16:22:14;2.87;;;1.87;;
43319;SDS011;28914;48.722;9.332;2023-05-10T16:27:33;1.87;;;1.10;;
43319;SDS011;28914;48.722;9.332;2023-05-10T16:32:52;1.30;;;0.80;;
43319;SDS011;28914;48.722;9.332;2023-05-10T16:38:11;1.50;;;1.00;;
43319;SDS011;28914;48.722;9.332;2023-05-10T16:43:31;1.30;;;0.80;;
43319;SDS011;28914;48.722;9.332;2023-05-10T16:48:50;1.37;;;0.90;;
43319;SDS011;28914;48.722;9.332;2023-05-10T16:54:09;1.53;;;0.87;;
43319;SDS011;28914;48.722;9.332;2023-05-10T16:59:28;1.80;;;0.80;;
43319;SDS011;28914;48.722;9.332;2023-05-10T17:04:47;1.30;;;0.83;;
43319;SDS011;28914;48.722;9.332;2023-05-10T17:10:07;1.10;;;0.80;;
43319;SDS011;28914;48.722;9.332;2023-05-10T17:15:27;1.70;;;1.00;;
43319;SDS011;28914;48.722;9.332;2023-05-10T17:20:46;2.00;;;0.90;;
43319;SDS011;28914;48.722;9.332;2023-05-10T17:26:07;2.33;;;0.80;;
43319;SDS011;28914;48.722;9.332;2023-05-10T17:31:26;1.10;;;0.70;;
43319;SDS011;28914;48.722;9.332;2023-05-10T17:36:45;2.60;;;1.10;;
43319;SDS011;28914;48.722;9.332;2023-05-10T17:42:04;1.70;;;1.13;;
43319;SDS011;28914;48.722;9.332;2023-05-10T17:47:24;2.60;;;1.60;;
43319;SDS011;28914;48.722;9.332;2023-05-10T17:52:43;2.30;;;1.30;;
43319;SDS011;28914;48.722;9.332;2023-05-10T17:58:03;2.53;;;1.70;;
43319;SDS011;28914;48.722;9.332;2023-05-10T18:03:22;1.10;;;0.80;;
43319;SDS011;28914;48.722;9.332;2023-05-10T18:08:41;1.33;;;0.93;;
43319;SDS011;28914;48.722;9.332;2023-05-10T18:14:00;2.07;;;0.70;;
43319;SDS011;28914;48.722;9.332;2023-05-10T18:19:20;1.80;;;0.80;;
43319;SDS011;28914;48.722;9.332;2023-05-10T18:24:42;1.03;;;0.70;;
43319;SDS011;28914;48.722;9.332;2023-05-10T18:30:02;1.40;;;0.80;;
43319;SDS011;28914;48.722;9.332;2023-05-10T18:35:22;1.77;;;0.90;;
43319;SDS011;28914;48.722;9.332;2023-05-10T18:40:41;2.27;;;1.20;;
43319;SDS011;28914;48.722;9.332;2023-05-10T18:46:00;1.60;;;1.00;;
43319;SDS011;28914;48.722;9.332;2023-05-10T18:51:20;1.97;;;0.80;;
43319;SDS011;28914;48.722;9.332;2023-05-10T18:56:40;2.47;;;0.73;;
43319;SDS011;28914;48.722;9.332;2023-05-10T19:02:02;1.60;;;1.10;;
43319;SDS011;28914;48.722;9.332;2023-05-10T19:07:22;2.20;;;1.07;;
43319;SDS011;28914;48.722;9.332;2023-05-10T19:12:41;1.17;;;1.00;;
43319;SDS011;28914;48.722;9.332;2023-05-10T19:18:01;1.83;;;1.30;;
43319;SDS011;28914;48.722;9.332;2023-05-10T19:23:20;5.60;;;1.73;;
43319;SDS011;28914;48.722;9.332;2023-05-10T19:28:39;1.67;;;1.20;;
43319;SDS011;28914;48.722;9.332;2023-05-10T19:33:58;1.00;;;0.80;;
43319;SDS011;28914;48.722;9.332;2023-05-10T19:39:17;2.43;;;1.13;;
43319;SDS011;28914;48.722;9.332;2023-05-10T19:44:37;1.67;;;1.00;;
43319;SDS011;28914;48.722;9.332;2023-05-10T19:49:56;1.70;;;1.13;;
43319;SDS011;28914;48.722;9.332;2023-05-10T19:55:25;2.90;;;1.30;;
43319;SDS011;28914;48.722;9.332;2023-05-10T20:00:46;2.40;;;1.30;;
43319;SDS011;28914;48.722;9.332;2023-05-10T20:06:05;2.17;;;1.40;;
43319;SDS011;28914;48.722;9.332;2023-05-10T20:11:25;1.27;;;1.03;;
43319;SDS011;28914;48.722;9.332;2023-05-10T20:16:44;1.70;;;1.20;;
43319;SDS011;28914;48.722;9.332;2023-05-10T20:22:03;1.37;;;0.73;;
43319;SDS011;28914;48.722;9.332;2023-05-10T20:27:23;1.43;;;0.90;;
43319;SDS011;28914;48.722;9.332;2023-05-10T20:32:42;2.03;;;1.20;;
43319;SDS011;28914;48.722;9.332;2023-05-10T20:38:01;1.73;;;1.00;;
43319;SDS011;28914;48.722;9.332;2023-05-10T20:43:21;1.10;;;0.73;;
43319;SDS011;28914;48.722;9.332;2023-05-10T20:48:42;1.87;;;1.10;;
43319;SDS011;28914;48.722;9.332;2023-05-10T20:54:01;1.60;;;0.90;;
43319;SDS011;28914;48.722;9.332;2023-05-10T20:59:21;1.90;;;1.00;;
43319;SDS011;28914;48.722;9.332;2023-05-10T21:04:41;1.10;;;0.90;;
43319;SDS011;28914;48.722;9.332;2023-05-10T21:10:00;1.00;;;0.80;;
43319;SDS011;28914;48.722;9.332;2023-05-10T21:15:19;1.53;;;1.00;;
43319;SDS011;28914;48.722;9.332;2023-05-10T21:20:40;2.03;;;1.07;;
43319;SDS011;28914;48.722;9.332;2023-05-10T21:26:01;2.17;;;1.20;;
43319;SDS011;28914;48.722;9.332;2023-05-10T21:31:21;2.33;;;1.30;;
43319;SDS011;28914;48.722;9.332;2023-05-10T21:36:40;1.50;;;1.10;;
43319;SDS011;28914;48.722;9.332;2023-05-10T21:42:00;1.83;;;1.20;;
43319;SDS011;28914;48.722;9.332;2023-05-10T21:47:19;1.40;;;1.00;;
43319;SDS011;28914;48.722;9.332;2023-05-10T21:52:38;1.50;;;0.97;;
43319;SDS011;28914;48.722;9.332;2023-05-10T21:57:57;1.00;;;0.80;;
43319;SDS011;28914;48.722;9.332;2023-05-10T22:03:17;1.47;;;0.93;;
43319;SDS011;28914;48.722;9.332;2023-05-10T22:08:36;2.70;;;0.90;;
43319;SDS011;28914;48.722;9.332;2023-05-10T22:13:55;1.00;;;0.70;;
43319;SDS011;28914;48.722;9.332;2023-05-10T22:19:14;1.17;;;0.83;;
43319;SDS011;28914;48.722;9.332;2023-05-10T22:24:33;0.90;;;0.60;;
43319;SDS011;28914;48.722;9.332;2023-05-10T22:29:53;1.00;;;0.77;;
43319;SDS011;28914;48.722;9.332;2023-05-10T22:35:12;1.07;;;0.60;;
43319;SDS011;28914;48.722;9.332;2023-05-10T22:40:31;1.30;;;0.87;;
43319;SDS011;28914;48.722;9.332;2023-05-10T22:45:50;1.23;;;0.70;;
43319;SDS011;28914;48.722;9.332;2023-05-10T22:51:09;1.20;;;0.60;;
43319;SDS011;28914;48.722;9.332;2023-05-10T22:56:29;1.30;;;0.90;;
43319;SDS011;28914;48.722;9.332;2023-05-10T23:01:48;1.90;;;0.80;;
43319;SDS011;28914;48.722;9.332;2023-05-10T23:07:07;2.73;;;1.10;;
43319;SDS011;28914;48.722;9.332;2023-05-10T23:12:27;1.10;;;0.70;;
43319;SDS011;28914;48.722;9.332;2023-05-10T23:17:48;1.50;;;0.80;;
43319;SDS011;28914;48.722;9.332;2023-05-10T23:23:08;1.30;;;0.90;;
43319;SDS011;28914;48.722;9.332;2023-05-10T23:28:28;1.30;;;0.90;;
43319;SDS011;28914;48.722;9.332;2023-05-10T23:33:47;1.20;;;0.70;;
43319;SDS011;28914;48.722;9.332;2023-05-10T23:39:06;1.00;;;0.60;;
43319;SDS011;28914;48.722;9.332;2023-05-10T23:44:25;1.20;;;0.70;;
43319;SDS011;28914;48.722;9.332;2023-05-10T23:49:44;1.50;;;0.77;;
43319;SDS011;28914;48.722;9.332;2023-05-10T23:55:04;2.17;;;0.90;;
